createdAt,value
2022-08-30T00:00:39.755Z,101692.25
2022-08-30T00:03:21.977Z,101689.56
2022-08-30T00:06:01.485Z,101678.34
2022-08-30T00:08:42.901Z,101680.47
2022-08-30T00:11:25.235Z,101684.16
2022-08-30T00:14:04.950Z,101691.81
2022-08-30T00:16:44.744Z,101696.97
2022-08-30T00:19:24.812Z,101687.09
2022-08-30T00:22:04.491Z,101699.81
2022-08-30T00:24:44.155Z,101695.59
2022-08-30T00:27:22.729Z,101694.06
2022-08-30T00:30:25.129Z,101685.69
2022-08-30T00:33:05.188Z,101679.13
2022-08-30T00:35:44.808Z,101673.28
2022-08-30T00:38:25.646Z,101673.28
2022-08-30T00:41:05.332Z,101682.59
2022-08-30T00:43:43.995Z,101685.75
2022-08-30T00:46:23.221Z,101686.53
2022-08-30T00:49:08.286Z,101682.47
2022-08-30T00:51:49.750Z,101689.47
2022-08-30T00:54:28.703Z,101684.44
2022-08-30T00:57:07.857Z,101691.47
2022-08-30T00:59:50.697Z,101684.59
2022-08-30T01:02:33.367Z,101687.75
2022-08-30T01:05:15.943Z,101690.69
2022-08-30T01:07:58.501Z,101695.06
2022-08-30T01:10:38.720Z,101690.19
2022-08-30T01:13:19.075Z,101685.16
2022-08-30T01:15:59.858Z,101688.75
2022-08-30T01:19:29.184Z,101685.78
2022-08-30T01:22:18.542Z,101686.31
2022-08-30T01:25:00.247Z,101683.47
2022-08-30T01:27:41.697Z,101690.50
2022-08-30T01:30:23.454Z,101688.16
2022-08-30T01:33:04.338Z,101685.63
2022-08-30T01:35:48.808Z,101684.38
2022-08-30T01:38:30.248Z,101687.22
2022-08-30T01:41:14.987Z,101694.09
2022-08-30T01:43:58.194Z,101695.41
2022-08-30T01:46:41.545Z,101692.03
2022-08-30T01:49:27.595Z,101691.19
2022-08-30T01:52:26.864Z,101691.19
2022-08-30T01:55:07.207Z,101693.19
2022-08-30T01:57:46.949Z,101691.50
2022-08-30T02:00:38.111Z,101681.25
2022-08-30T02:03:20.200Z,101689.28
2022-08-30T02:06:04.687Z,101680.41
2022-08-30T02:08:42.953Z,101689.84
2022-08-30T02:11:21.052Z,101690.53
2022-08-30T02:14:02.425Z,101694.22
2022-08-30T02:16:43.836Z,101691.84
2022-08-30T02:19:21.928Z,101700.56
2022-08-30T02:22:00.204Z,101693.84
2022-08-30T02:24:39.571Z,101696.13
2022-08-30T02:27:18.185Z,101690.25
2022-08-30T02:29:57.563Z,101690.41
2022-08-30T02:32:39.400Z,101696.03
2022-08-30T02:35:19.023Z,101699.00
2022-08-30T02:37:57.388Z,101693.97
2022-08-30T02:40:39.112Z,101696.94
2022-08-30T02:43:20.739Z,101699.63
2022-08-30T02:46:01.667Z,101687.56
2022-08-30T02:48:41.333Z,101692.91
2022-08-30T02:51:21.344Z,101689.38
2022-08-30T02:54:01.109Z,101697.94
2022-08-30T02:56:39.507Z,101685.72
2022-08-30T02:59:19.602Z,101689.63
2022-08-30T03:02:01.245Z,101682.44
2022-08-30T03:04:55.679Z,101678.22
2022-08-30T03:07:36.727Z,101678.78
2022-08-30T03:10:18.598Z,101686.31
2022-08-30T03:12:58.164Z,101695.88
2022-08-30T03:15:39.415Z,101685.94
2022-08-30T03:18:21.704Z,101687.47
2022-08-30T03:21:02.317Z,101684.34
2022-08-30T03:23:42.491Z,101697.81
2022-08-30T03:26:21.975Z,101685.66
2022-08-30T03:29:05.071Z,101687.03
2022-08-30T03:31:53.272Z,101682.25
2022-08-30T03:34:33.987Z,101686.16
2022-08-30T03:37:14.744Z,101681.94
2022-08-30T03:39:53.893Z,101684.16
2022-08-30T03:42:34.827Z,101680.50
2022-08-30T03:45:16.578Z,101688.91
2022-08-30T03:47:59.767Z,101698.75
2022-08-30T03:50:41.362Z,101693.13
2022-08-30T03:53:25.737Z,101696.78
2022-08-30T03:56:10.824Z,101688.75
2022-08-30T03:58:53.394Z,101688.75
2022-08-30T04:01:33.055Z,101689.75
2022-08-30T04:04:18.619Z,101686.06
2022-08-30T04:07:20.256Z,101682.28
2022-08-30T04:10:01.831Z,101686.31
2022-08-30T04:12:46.158Z,101692.88
2022-08-30T04:15:28.529Z,101696.91
2022-08-30T04:18:07.255Z,101696.63
2022-08-30T04:20:47.373Z,101695.47
2022-08-30T04:23:29.060Z,101695.16
2022-08-30T04:26:09.701Z,101698.84
2022-08-30T04:28:49.743Z,101697.69
2022-08-30T04:31:31.499Z,101700.19
2022-08-30T04:34:13.441Z,101705.09
2022-08-30T04:36:52.169Z,101712.28
2022-08-30T04:39:33.229Z,101716.47
2022-08-30T04:42:13.765Z,101708.91
2022-08-30T04:44:55.534Z,101702.41
2022-08-30T04:47:35.925Z,101707.19
2022-08-30T04:50:16.215Z,101714.41
2022-08-30T04:52:57.042Z,101712.78
2022-08-30T04:55:40.470Z,101710.81
2022-08-30T04:58:21.478Z,101715.56
2022-08-30T05:01:01.273Z,101708.25
2022-08-30T05:03:41.381Z,101712.28
2022-08-30T05:06:24.039Z,101716.56
2022-08-30T05:09:03.996Z,101720.41
2022-08-30T05:11:44.114Z,101717.09
2022-08-30T05:14:25.209Z,101718.56
2022-08-30T05:17:05.493Z,101721.22
2022-08-30T05:19:48.404Z,101721.44
2022-08-30T05:22:28.050Z,101729.00
2022-08-30T05:25:10.256Z,101730.56
2022-08-30T05:27:55.956Z,101744.31
2022-08-30T05:30:39.309Z,101736.97
2022-08-30T05:33:19.774Z,101739.47
2022-08-30T05:36:02.250Z,101741.38
2022-08-30T05:38:42.747Z,101739.94
2022-08-30T05:41:26.498Z,101741.28
2022-08-30T05:44:29.859Z,101740.97
2022-08-30T05:47:10.868Z,101743.84
2022-08-30T05:49:50.673Z,101746.75
2022-08-30T05:52:30.155Z,101754.31
2022-08-30T05:55:11.719Z,101751.16
2022-08-30T05:58:05.014Z,101754.84
2022-08-30T06:00:45.540Z,101755.50
2022-08-30T06:03:26.527Z,101744.50
2022-08-30T06:06:06.913Z,101747.75
2022-08-30T06:08:48.462Z,101745.91
2022-08-30T06:11:28.920Z,101751.19
2022-08-30T06:14:09.823Z,101753.88
2022-08-30T06:17:29.388Z,101750.53
2022-08-30T06:20:14.091Z,101754.41
2022-08-30T06:22:55.033Z,101752.13
2022-08-30T06:25:42.044Z,101747.91
2022-08-30T06:28:41.913Z,101756.59
2022-08-30T06:32:04.394Z,101755.72
2022-08-30T06:34:48.323Z,101751.28
2022-08-30T06:37:29.473Z,101751.13
2022-08-30T06:40:13.619Z,101751.13
2022-08-30T06:42:53.657Z,101757.84
2022-08-30T06:45:34.500Z,101767.34
2022-08-30T06:48:17.641Z,101763.50
2022-08-30T06:51:00.639Z,101767.88
2022-08-30T06:53:43.477Z,101774.25
2022-08-30T06:56:23.650Z,101765.50
2022-08-30T06:59:03.080Z,101761.13
2022-08-30T07:01:44.954Z,101755.88
2022-08-30T07:04:24.491Z,101755.66
2022-08-30T07:07:06.245Z,101758.94
2022-08-30T07:09:47.280Z,101756.00
2022-08-30T07:12:28.863Z,101751.22
2022-08-30T07:15:10.810Z,101754.75
2022-08-30T07:18:08.823Z,101759.66
2022-08-30T07:20:47.119Z,101763.16
2022-08-30T07:23:28.284Z,101759.50
2022-08-30T07:26:10.663Z,101758.47
2022-08-30T07:28:55.872Z,101759.69
2022-08-30T07:31:36.339Z,101767.28
2022-08-30T07:34:51.703Z,101763.09
2022-08-30T07:37:32.625Z,101776.50
2022-08-30T07:40:14.079Z,101790.66
2022-08-30T07:42:55.014Z,101784.91
2022-08-30T07:45:35.362Z,101790.66
2022-08-30T07:48:15.901Z,101786.00
2022-08-30T07:50:59.004Z,101784.88
2022-08-30T07:53:41.221Z,101790.94
2022-08-30T07:56:19.653Z,101790.81
2022-08-30T07:59:02.632Z,101792.16
2022-08-30T08:01:43.774Z,101789.84
2022-08-30T08:04:24.201Z,101789.63
2022-08-30T08:07:05.067Z,101794.53
2022-08-30T08:09:46.552Z,101792.84
2022-08-30T08:12:26.164Z,101792.03
2022-08-30T08:15:08.680Z,101791.69
2022-08-30T08:17:49.025Z,101798.88
2022-08-30T08:20:28.899Z,101805.09
2022-08-30T08:23:08.846Z,101796.56
2022-08-30T08:25:48.634Z,101802.22
2022-08-30T08:28:28.435Z,101806.94
2022-08-30T08:31:15.155Z,101810.06
2022-08-30T08:33:56.062Z,101810.84
2022-08-30T08:36:37.298Z,101806.66
2022-08-30T08:39:15.766Z,101805.81
2022-08-30T08:42:05.000Z,101810.19
2022-08-30T08:44:54.630Z,101799.19
2022-08-30T08:47:39.279Z,101798.59
2022-08-30T08:50:21.865Z,101802.72
2022-08-30T08:53:45.224Z,101802.09
2022-08-30T08:56:24.974Z,101801.94
2022-08-30T08:59:08.372Z,101799.94
2022-08-30T09:01:50.787Z,101799.56
2022-08-30T09:04:35.495Z,101808.22
2022-08-30T09:07:22.786Z,101803.88
2022-08-30T09:10:06.023Z,101798.94
2022-08-30T09:12:47.898Z,101800.28
2022-08-30T09:15:29.608Z,101796.38
2022-08-30T09:18:19.737Z,101806.72
2022-08-30T09:21:25.755Z,101796.81
2022-08-30T09:24:08.718Z,101797.41
2022-08-30T09:26:50.073Z,101800.88
2022-08-30T09:29:29.848Z,101804.19
2022-08-30T09:32:25.811Z,101804.25
2022-08-30T09:35:10.554Z,101809.44
2022-08-30T09:38:07.437Z,101816.13
2022-08-30T09:40:50.820Z,101816.13
2022-08-30T09:43:33.235Z,101816.84
2022-08-30T09:46:16.408Z,101821.81
2022-08-30T09:49:28.510Z,101822.53
2022-08-30T09:52:14.545Z,101815.78
2022-08-30T09:55:14.648Z,101812.63
2022-08-30T09:57:58.750Z,101798.97
2022-08-30T10:00:42.094Z,101799.22
2022-08-30T10:03:36.455Z,101796.94
2022-08-30T10:06:28.913Z,101796.09
2022-08-30T10:09:17.895Z,101803.16
2022-08-30T10:12:09.499Z,101812.06
2022-08-30T10:14:53.225Z,101808.59
2022-08-30T10:17:41.810Z,101813.47
2022-08-30T10:20:29.916Z,101808.75
2022-08-30T10:23:11.059Z,101803.56
2022-08-30T10:25:53.333Z,101810.06
2022-08-30T10:28:37.807Z,101808.19
2022-08-30T10:31:22.484Z,101806.22
2022-08-30T10:34:07.640Z,101813.75
2022-08-30T10:36:52.245Z,101815.72
2022-08-30T10:39:38.954Z,101808.41
2022-08-30T10:42:22.427Z,101809.09
2022-08-30T10:45:06.953Z,101805.25
2022-08-30T10:47:54.749Z,101813.06
2022-08-30T10:50:42.092Z,101813.06
2022-08-30T10:53:27.158Z,101799.59
2022-08-30T10:56:10.520Z,101800.88
2022-08-30T10:58:54.514Z,101789.50
2022-08-30T11:01:49.990Z,101786.97
2022-08-30T11:05:09.267Z,101781.63
2022-08-30T11:07:54.249Z,101776.31
2022-08-30T11:10:49.587Z,101785.22
2022-08-30T11:13:32.680Z,101781.59
2022-08-30T11:16:16.129Z,101775.56
2022-08-30T11:18:58.800Z,101774.44
2022-08-30T11:21:39.448Z,101783.19
2022-08-30T11:24:21.775Z,101783.63
2022-08-30T11:27:43.778Z,101783.84
2022-08-30T11:30:49.442Z,101782.56
2022-08-30T11:33:46.278Z,101781.00
2022-08-30T11:37:01.188Z,101783.22
2022-08-30T11:40:07.065Z,101766.34
2022-08-30T11:42:57.305Z,101763.72
2022-08-30T11:45:52.253Z,101763.75
2022-08-30T11:48:51.393Z,101773.63
2022-08-30T11:51:41.479Z,101763.84
2022-08-30T11:54:31.222Z,101752.91
2022-08-30T11:57:18.502Z,101765.69
2022-08-30T12:00:06.292Z,101751.34
2022-08-30T12:02:56.337Z,101749.28
2022-08-30T12:06:00.762Z,101751.38
2022-08-30T12:08:57.964Z,101753.31
2022-08-30T12:12:02.286Z,101745.94
2022-08-30T12:14:49.323Z,101742.69
2022-08-30T12:18:15.665Z,101736.09
2022-08-30T12:20:55.555Z,101730.59
2022-08-30T12:23:44.537Z,101736.75
2022-08-30T12:26:35.811Z,101725.56
2022-08-30T12:29:18.353Z,101723.09
2022-08-30T12:31:59.094Z,101718.22
2022-08-30T12:34:52.750Z,101718.34
2022-08-30T12:37:34.253Z,101715.41
2022-08-30T12:40:20.050Z,101718.69
2022-08-30T12:43:01.184Z,101716.03
2022-08-30T12:46:07.326Z,101702.94
2022-08-30T12:48:50.141Z,101710.72
2022-08-30T12:51:41.002Z,101706.91
2022-08-30T12:54:23.603Z,101700.94
2022-08-30T12:57:25.517Z,101691.44
2022-08-30T13:00:09.476Z,101693.38
2022-08-30T13:02:52.923Z,101693.47
2022-08-30T13:05:45.616Z,101685.97
2022-08-30T13:08:34.533Z,101686.56
2022-08-30T13:11:29.358Z,101677.53
2022-08-30T13:14:38.720Z,101674.22
2022-08-30T13:17:26.653Z,101673.44
2022-08-30T13:20:22.750Z,101661.34
2022-08-30T13:23:09.586Z,101669.31
2022-08-30T13:25:49.493Z,101669.69
2022-08-30T13:28:30.941Z,101677.31
2022-08-30T13:31:10.701Z,101674.25
2022-08-30T13:33:53.230Z,101656.88
2022-08-30T13:36:36.654Z,101652.13
2022-08-30T13:39:16.650Z,101649.44
2022-08-30T13:45:02.313Z,101653.25
2022-08-30T13:47:44.004Z,101653.63
2022-08-30T13:50:24.505Z,101647.28
2022-08-30T13:53:09.174Z,101646.72
2022-08-30T13:55:48.763Z,101650.41
2022-08-30T13:58:28.807Z,101651.72
2022-08-30T14:01:07.699Z,101645.22
2022-08-30T14:09:49.702Z,101645.50
2022-08-30T14:15:34.960Z,101644.06
2022-08-30T14:18:19.774Z,101642.72
2022-08-30T14:21:06.156Z,101639.34
2022-08-30T14:24:28.423Z,101636.03
2022-08-30T14:27:08.742Z,101643.78
2022-08-30T14:29:47.586Z,101636.69
2022-08-30T14:32:26.755Z,101628.66
2022-08-30T14:35:08.803Z,101639.63
2022-08-30T14:37:48.156Z,101623.22
2022-08-30T14:40:26.634Z,101636.72
2022-08-30T14:43:07.462Z,101626.31
2022-08-30T14:45:48.460Z,101621.47
2022-08-30T14:48:28.999Z,101623.00
2022-08-30T14:51:24.398Z,101614.44
2022-08-30T14:54:37.666Z,101622.19
2022-08-30T14:57:18.397Z,101619.47
2022-08-30T14:59:59.865Z,101617.19
2022-08-30T15:02:41.614Z,101616.47
2022-08-30T15:05:21.605Z,101609.78
2022-08-30T15:08:01.190Z,101614.88
2022-08-30T15:10:43.854Z,101620.78
2022-08-30T15:13:24.242Z,101611.56
2022-08-30T15:16:03.186Z,101613.25
2022-08-30T15:18:43.844Z,101608.28
2022-08-30T15:21:25.662Z,101614.50
2022-08-30T15:24:08.761Z,101613.38
2022-08-30T15:26:51.032Z,101612.13
2022-08-30T15:29:32.207Z,101607.94
2022-08-30T15:32:11.313Z,101604.81
2022-08-30T15:34:55.802Z,101601.88
2022-08-30T15:37:35.396Z,101607.09
2022-08-30T15:40:16.172Z,101602.41
2022-08-30T15:42:56.556Z,101595.75
2022-08-30T15:45:36.355Z,101599.00
2022-08-30T15:49:01.389Z,101602.94
2022-08-30T15:51:45.921Z,101602.44
2022-08-30T15:54:28.080Z,101563.63
2022-08-30T15:57:08.153Z,101595.53
2022-08-30T15:59:48.515Z,101597.69
2022-08-30T16:02:29.983Z,101597.72
2022-08-30T16:05:24.035Z,101589.78
2022-08-30T16:08:07.788Z,101586.44
2022-08-30T16:10:49.217Z,101596.50
2022-08-30T16:13:34.382Z,101593.56
2022-08-30T16:16:13.162Z,101590.69
2022-08-30T16:18:53.918Z,101590.28
2022-08-30T16:21:36.821Z,101586.31
2022-08-30T16:24:18.690Z,101584.81
2022-08-30T16:27:02.415Z,101586.16
2022-08-30T16:29:43.403Z,101582.81
2022-08-30T16:32:34.482Z,101579.50
2022-08-30T16:35:14.103Z,101587.44
2022-08-30T16:37:53.649Z,101582.03
2022-08-30T16:40:32.229Z,101578.25
2022-08-30T16:43:11.618Z,101574.09
2022-08-30T16:45:51.452Z,101572.03
2022-08-30T16:48:31.505Z,101582.22
2022-08-30T16:51:12.803Z,101574.13
2022-08-30T16:53:52.455Z,101564.94
2022-08-30T16:56:33.971Z,101564.09
2022-08-30T16:59:14.516Z,101562.03
2022-08-30T17:01:57.121Z,101569.50
2022-08-30T17:04:37.444Z,101570.56
2022-08-30T17:07:21.414Z,101565.31
2022-08-30T17:10:03.813Z,101560.94
2022-08-30T17:12:44.319Z,101563.00
2022-08-30T17:15:27.504Z,101557.97
2022-08-30T17:18:08.322Z,101559.19
2022-08-30T17:20:48.287Z,101556.25
2022-08-30T17:23:31.608Z,101562.94
2022-08-30T17:26:10.916Z,101566.03
2022-08-30T17:28:50.960Z,101565.22
2022-08-30T17:31:31.372Z,101573.47
2022-08-30T17:34:31.301Z,101574.31
2022-08-30T17:37:13.324Z,101572.78
2022-08-30T17:39:56.155Z,101576.28
2022-08-30T17:42:35.535Z,101585.81
2022-08-30T17:45:16.773Z,101592.31
2022-08-30T17:47:58.888Z,101589.47
2022-08-30T17:50:41.639Z,101598.19
2022-08-30T17:53:22.655Z,101601.44
2022-08-30T17:56:04.965Z,101604.84
2022-08-30T17:58:59.949Z,101614.31
2022-08-30T18:01:43.039Z,101617.63
2022-08-30T18:04:24.671Z,101614.69
2022-08-30T18:07:03.527Z,101627.94
2022-08-30T18:09:44.015Z,101634.91
2022-08-30T18:12:24.280Z,101626.63
2022-08-30T18:15:12.329Z,101637.63
2022-08-30T18:17:51.889Z,101637.94
2022-08-30T18:20:32.032Z,101651.91
2022-08-30T18:23:14.240Z,101649.75
2022-08-30T18:26:00.066Z,101640.19
2022-08-30T18:28:43.981Z,101641.13
2022-08-30T18:31:24.831Z,101640.72
2022-08-30T18:34:12.452Z,101637.59
2022-08-30T18:36:52.752Z,101645.72
2022-08-30T18:39:34.125Z,101641.97
2022-08-30T18:42:31.159Z,101655.84
2022-08-30T18:45:16.676Z,101661.25
2022-08-30T18:47:58.909Z,101664.47
2022-08-30T18:50:40.773Z,101671.34
2022-08-30T18:54:03.466Z,101671.75
2022-08-30T18:56:47.271Z,101669.25
2022-08-30T18:59:35.364Z,101676.31
2022-08-30T19:02:17.485Z,101676.69
2022-08-30T19:04:55.881Z,101673.97
2022-08-30T19:07:37.538Z,101685.06
2022-08-30T19:11:07.614Z,101681.22
2022-08-30T19:13:49.301Z,101674.75
2022-08-30T19:17:13.652Z,101679.03
2022-08-30T19:19:54.530Z,101681.88
2022-08-30T19:23:05.803Z,101687.16
2022-08-30T19:25:35.227Z,101678.34
2022-08-30T19:28:25.748Z,101685.94
2022-08-30T19:31:06.604Z,101685.63
2022-08-30T19:33:47.344Z,101696.06
2022-08-30T19:36:28.758Z,101688.63
2022-08-30T19:39:09.877Z,101690.25
2022-08-30T19:41:51.303Z,101687.28
2022-08-30T19:44:31.749Z,101687.38
2022-08-30T19:47:11.748Z,101697.13
2022-08-30T19:50:30.697Z,101699.06
2022-08-30T19:53:31.849Z,101691.50
2022-08-30T19:56:11.204Z,101697.78
2022-08-30T19:58:49.593Z,101704.03
2022-08-30T20:01:34.131Z,101708.25
2022-08-30T20:04:14.272Z,101714.03
2022-08-30T20:06:54.938Z,101710.31
2022-08-30T20:09:34.542Z,101722.47
2022-08-30T20:12:15.651Z,101710.78
2022-08-30T20:14:58.761Z,101711.06
2022-08-30T20:18:02.595Z,101720.16
2022-08-30T20:20:48.598Z,101719.41
2022-08-30T20:23:31.032Z,101723.41
2022-08-30T20:26:16.421Z,101722.44
2022-08-30T20:28:59.469Z,101724.78
2022-08-30T20:31:42.409Z,101725.69
2022-08-30T20:34:27.511Z,101725.53
2022-08-30T20:37:08.085Z,101734.59
2022-08-30T20:39:48.511Z,101732.44
2022-08-30T20:42:29.395Z,101724.38
2022-08-30T20:45:15.001Z,101726.41
2022-08-30T20:47:56.241Z,101729.41
2022-08-30T20:50:35.437Z,101742.50
2022-08-30T20:53:15.712Z,101736.69
2022-08-30T20:55:55.590Z,101737.34
2022-08-30T20:58:34.820Z,101743.06
2022-08-30T21:01:16.744Z,101747.63
2022-08-30T21:03:57.351Z,101745.75
2022-08-30T21:06:38.122Z,101742.72
2022-08-30T21:09:17.632Z,101744.09
2022-08-30T21:12:00.674Z,101752.69
2022-08-30T21:14:41.287Z,101752.66
2022-08-30T21:17:26.319Z,101753.19
2022-08-30T21:20:11.098Z,101756.88
2022-08-30T21:22:53.011Z,101757.72
2022-08-30T21:25:33.184Z,101760.75
2022-08-30T21:28:21.121Z,101770.66
2022-08-30T21:31:07.739Z,101771.19
2022-08-30T21:33:48.664Z,101767.66
2022-08-30T21:36:48.292Z,101772.34
2022-08-30T21:39:29.594Z,101773.88
2022-08-30T21:42:09.008Z,101777.59
2022-08-30T21:44:49.371Z,101777.09
2022-08-30T21:47:28.088Z,101776.41
2022-08-30T21:50:08.239Z,101779.41
2022-08-30T21:52:48.619Z,101777.75
2022-08-30T21:55:28.780Z,101787.50
2022-08-30T21:58:11.782Z,101786.66
2022-08-30T22:00:51.882Z,101794.84
2022-08-30T22:03:52.851Z,101789.84
2022-08-30T22:06:38.006Z,101800.25
2022-08-30T22:09:18.935Z,101797.72
2022-08-30T22:12:41.734Z,101795.69
2022-08-30T22:15:23.312Z,101799.53
2022-08-30T22:18:08.061Z,101803.59
2022-08-30T22:20:48.439Z,101800.72
2022-08-30T22:23:31.243Z,101808.25
2022-08-30T22:26:14.035Z,101809.13
2022-08-30T22:28:56.398Z,101809.28
2022-08-30T22:32:19.560Z,101807.94
2022-08-30T22:34:58.751Z,101807.97
2022-08-30T22:37:37.867Z,101808.63
2022-08-30T22:40:17.798Z,101805.28
2022-08-30T22:42:57.460Z,101805.09
2022-08-30T22:45:37.529Z,101801.75
2022-08-30T22:48:16.233Z,101807.44
2022-08-30T22:50:55.280Z,101807.75
2022-08-30T22:53:37.429Z,101808.59
2022-08-30T22:56:18.308Z,101804.25
2022-08-30T22:59:08.867Z,101802.72
2022-08-30T23:01:49.251Z,101801.06
2022-08-30T23:04:29.960Z,101805.59
2022-08-30T23:07:10.574Z,101804.56
2022-08-30T23:09:50.158Z,101810.63
2022-08-30T23:12:31.289Z,101812.22
2022-08-30T23:15:13.407Z,101811.56
2022-08-30T23:17:54.662Z,101808.25
2022-08-30T23:20:34.538Z,101816.16
2022-08-30T23:24:15.929Z,101817.50
2022-08-30T23:27:12.667Z,101817.94
2022-08-30T23:30:12.109Z,101827.06
2022-08-30T23:33:10.178Z,101824.97
2022-08-30T23:36:08.325Z,101817.50
2022-08-30T23:39:06.346Z,101818.78
2022-08-30T23:42:47.157Z,101814.31
2022-08-30T23:45:44.072Z,101818.22
2022-08-30T23:48:40.470Z,101816.53
2022-08-30T23:51:49.847Z,101816.19
2022-08-30T23:54:47.502Z,101828.25
2022-08-30T23:57:46.230Z,101822.06
